sensor_id;sensor_type;location;lat;lon;timestamp;pressure;altitude;pressure_sealevel;temperature;humidity
10474;BME280;5284;50.446;7.904;2022-10-14T00:04:51;98494.16;;;12.08;100.00
10474;BME280;5284;50.446;7.904;2022-10-14T00:09:54;98495.84;;;12.09;100.00
10474;BME280;5284;50.446;7.904;2022-10-14T00:14:58;98491.50;;;12.08;100.00
10474;BME280;5284;50.446;7.904;2022-10-14T00:20:01;98499.38;;;12.10;100.00
10474;BME280;5284;50.446;7.904;2022-10-14T00:25:04;98488.81;;;12.08;100.00
10474;BME280;5284;50.446;7.904;2022-10-14T00:30:10;98488.13;;;12.06;100.00
10474;BME280;5284;50.446;7.904;2022-10-14T00:35:13;98486.28;;;12.07;100.00
10474;BME280;5284;50.446;7.904;2022-10-14T00:40:16;98489.09;;;12.05;100.00
10474;BME280;5284;50.446;7.904;2022-10-14T00:45:22;98481.91;;;12.06;100.00
10474;BME280;5284;50.446;7.904;2022-10-14T00:50:28;98480.09;;;12.06;100.00
10474;BME280;5284;50.446;7.904;2022-10-14T00:55:31;98486.44;;;12.05;100.00
10474;BME280;5284;50.446;7.904;2022-10-14T01:00:38;98491.63;;;12.07;100.00
10474;BME280;5284;50.446;7.904;2022-10-14T01:05:47;98471.22;;;12.06;100.00
10474;BME280;5284;50.446;7.904;2022-10-14T01:10:57;98477.44;;;12.06;100.00
10474;BME280;5284;50.446;7.904;2022-10-14T01:16:14;98471.38;;;12.04;100.00
10474;BME280;5284;50.446;7.904;2022-10-14T01:21:26;98468.72;;;12.04;100.00
10474;BME280;5284;50.446;7.904;2022-10-14T01:26:42;98462.50;;;12.04;100.00
10474;BME280;5284;50.446;7.904;2022-10-14T01:31:59;98459.81;;;12.04;100.00
10474;BME280;5284;50.446;7.904;2022-10-14T01:37:10;98462.50;;;12.04;100.00
10474;BME280;5284;50.446;7.904;2022-10-14T01:42:19;98458.00;;;12.04;100.00
10474;BME280;5284;50.446;7.904;2022-10-14T01:47:28;98451.81;;;12.04;100.00
10474;BME280;5284;50.446;7.904;2022-10-14T01:52:35;98434.78;;;12.05;100.00
10474;BME280;5284;50.446;7.904;2022-10-14T01:57:41;98436.75;;;12.03;100.00
10474;BME280;5284;50.446;7.904;2022-10-14T02:02:46;98424.25;;;12.03;100.00
10474;BME280;5284;50.446;7.904;2022-10-14T02:07:52;98417.22;;;12.02;100.00
10474;BME280;5284;50.446;7.904;2022-10-14T02:13:10;98413.69;;;12.02;100.00
10474;BME280;5284;50.446;7.904;2022-10-14T02:18:24;98403.28;;;11.99;100.00
10474;BME280;5284;50.446;7.904;2022-10-14T02:23:33;98401.47;;;11.99;100.00
10474;BME280;5284;50.446;7.904;2022-10-14T02:28:37;98397.94;;;11.99;100.00
10474;BME280;5284;50.446;7.904;2022-10-14T02:33:49;98390.09;;;11.97;100.00
10474;BME280;5284;50.446;7.904;2022-10-14T02:38:55;98380.50;;;11.95;100.00
10474;BME280;5284;50.446;7.904;2022-10-14T02:44:00;98389.38;;;11.95;100.00
10474;BME280;5284;50.446;7.904;2022-10-14T02:49:04;98384.03;;;11.95;100.00
10474;BME280;5284;50.446;7.904;2022-10-14T02:54:07;98381.38;;;11.95;100.00
10474;BME280;5284;50.446;7.904;2022-10-14T02:59:09;98373.34;;;11.95;100.00
10474;BME280;5284;50.446;7.904;2022-10-14T03:04:14;98366.16;;;11.96;100.00
10474;BME280;5284;50.446;7.904;2022-10-14T03:09:17;98361.81;;;11.95;100.00
10474;BME280;5284;50.446;7.904;2022-10-14T03:14:22;98366.31;;;11.94;100.00
10474;BME280;5284;50.446;7.904;2022-10-14T03:19:28;98360.81;;;11.96;100.00
10474;BME280;5284;50.446;7.904;2022-10-14T03:24:31;98363.47;;;11.96;100.00
10474;BME280;5284;50.446;7.904;2022-10-14T03:29:53;98359.13;;;11.95;100.00
10474;BME280;5284;50.446;7.904;2022-10-14T03:34:59;98363.66;;;11.94;100.00
10474;BME280;5284;50.446;7.904;2022-10-14T03:40:03;98366.16;;;11.96;100.00
10474;BME280;5284;50.446;7.904;2022-10-14T03:45:10;98358.13;;;11.96;100.00
10474;BME280;5284;50.446;7.904;2022-10-14T03:50:15;98361.66;;;11.96;100.00
10474;BME280;5284;50.446;7.904;2022-10-14T03:55:23;98360.00;;;11.95;100.00
10474;BME280;5284;50.446;7.904;2022-10-14T04:00:27;98358.13;;;11.96;100.00
10474;BME280;5284;50.446;7.904;2022-10-14T04:05:44;98352.78;;;11.96;100.00
10474;BME280;5284;50.446;7.904;2022-10-14T04:10:55;98358.13;;;11.96;100.00
10474;BME280;5284;50.446;7.904;2022-10-14T04:16:02;98350.97;;;11.96;100.00
10474;BME280;5284;50.446;7.904;2022-10-14T04:21:29;98352.09;;;11.94;100.00
10474;BME280;5284;50.446;7.904;2022-10-14T04:26:58;98342.41;;;11.93;100.00
10474;BME280;5284;50.446;7.904;2022-10-14T04:32:13;98330.88;;;11.92;100.00
10474;BME280;5284;50.446;7.904;2022-10-14T04:37:19;98329.03;;;11.93;100.00
10474;BME280;5284;50.446;7.904;2022-10-14T04:42:40;98324.53;;;11.93;100.00
10474;BME280;5284;50.446;7.904;2022-10-14T04:47:52;98321.88;;;11.93;100.00
10474;BME280;5284;50.446;7.904;2022-10-14T04:52:59;98320.88;;;11.94;100.00
10474;BME280;5284;50.446;7.904;2022-10-14T04:58:02;98312.00;;;11.94;100.00
10474;BME280;5284;50.446;7.904;2022-10-14T05:03:12;98311.19;;;11.93;100.00
10474;BME280;5284;50.446;7.904;2022-10-14T05:08:17;98310.31;;;11.93;100.00
10474;BME280;5284;50.446;7.904;2022-10-14T05:13:24;98311.19;;;11.93;100.00
10474;BME280;5284;50.446;7.904;2022-10-14T05:18:33;98311.44;;;11.90;100.00
10474;BME280;5284;50.446;7.904;2022-10-14T05:23:42;98301.75;;;11.89;100.00
10474;BME280;5284;50.446;7.904;2022-10-14T05:28:45;98298.09;;;11.90;100.00
10474;BME280;5284;50.446;7.904;2022-10-14T05:33:49;98301.75;;;11.89;100.00
10474;BME280;5284;50.446;7.904;2022-10-14T05:38:53;98294.59;;;11.90;100.00
10474;BME280;5284;50.446;7.904;2022-10-14T05:44:03;98295.88;;;11.86;100.00
10474;BME280;5284;50.446;7.904;2022-10-14T05:49:08;98288.97;;;11.83;100.00
10474;BME280;5284;50.446;7.904;2022-10-14T05:54:14;98281.53;;;11.87;100.00
10474;BME280;5284;50.446;7.904;2022-10-14T05:59:18;98276.72;;;11.90;100.00
10474;BME280;5284;50.446;7.904;2022-10-14T06:04:21;98281.09;;;11.91;100.00
10474;BME280;5284;50.446;7.904;2022-10-14T06:09:26;98280.94;;;11.93;100.00
10474;BME280;5284;50.446;7.904;2022-10-14T06:14:29;98289.34;;;11.98;100.00
10474;BME280;5284;50.446;7.904;2022-10-14T06:19:34;98289.06;;;12.01;100.00
10474;BME280;5284;50.446;7.904;2022-10-14T06:24:38;98276.56;;;12.01;100.00
10474;BME280;5284;50.446;7.904;2022-10-14T06:29:41;98288.63;;;12.05;100.00
10474;BME280;5284;50.446;7.904;2022-10-14T06:34:44;98288.47;;;12.07;100.00
10474;BME280;5284;50.446;7.904;2022-10-14T06:39:49;98288.03;;;12.11;100.00
10474;BME280;5284;50.446;7.904;2022-10-14T06:44:51;98285.06;;;12.14;100.00
10474;BME280;5284;50.446;7.904;2022-10-14T06:49:54;98272.97;;;12.19;100.00
10474;BME280;5284;50.446;7.904;2022-10-14T06:54:59;98266.47;;;12.22;100.00
10474;BME280;5284;50.446;7.904;2022-10-14T07:00:03;98274.44;;;12.31;100.00
10474;BME280;5284;50.446;7.904;2022-10-14T07:05:08;98263.22;;;12.28;100.00
10474;BME280;5284;50.446;7.904;2022-10-14T07:10:13;98265.84;;;12.37;100.00
10474;BME280;5284;50.446;7.904;2022-10-14T07:15:15;98275.53;;;12.38;100.00
10474;BME280;5284;50.446;7.904;2022-10-14T07:20:19;98260.06;;;12.42;100.00
10474;BME280;5284;50.446;7.904;2022-10-14T07:25:23;98270.53;;;12.53;100.00
10474;BME280;5284;50.446;7.904;2022-10-14T07:30:27;98267.72;;;12.54;100.00
10474;BME280;5284;50.446;7.904;2022-10-14T07:35:30;98270.72;;;12.51;100.00
10474;BME280;5284;50.446;7.904;2022-10-14T07:40:34;98275.59;;;12.56;100.00
10474;BME280;5284;50.446;7.904;2022-10-14T07:45:38;98275.88;;;12.53;100.00
10474;BME280;5284;50.446;7.904;2022-10-14T07:50:48;98271.56;;;12.69;100.00
10474;BME280;5284;50.446;7.904;2022-10-14T07:55:55;98265.84;;;12.82;100.00
10474;BME280;5284;50.446;7.904;2022-10-14T08:01:00;98279.50;;;12.88;100.00
10474;BME280;5284;50.446;7.904;2022-10-14T08:06:04;98277.09;;;12.95;100.00
10474;BME280;5284;50.446;7.904;2022-10-14T08:11:11;98263.09;;;13.01;100.00
10474;BME280;5284;50.446;7.904;2022-10-14T08:16:16;98256.81;;;13.10;100.00
10474;BME280;5284;50.446;7.904;2022-10-14T08:21:21;98267.84;;;13.07;100.00
10474;BME280;5284;50.446;7.904;2022-10-14T08:26:27;98261.84;;;13.30;100.00
10474;BME280;5284;50.446;7.904;2022-10-14T08:31:33;98277.41;;;13.44;100.00
10474;BME280;5284;50.446;7.904;2022-10-14T08:36:37;98277.22;;;13.46;100.00
10474;BME280;5284;50.446;7.904;2022-10-14T08:42:10;98268.94;;;13.57;100.00
10474;BME280;5284;50.446;7.904;2022-10-14T08:47:22;98254.53;;;13.58;100.00
10474;BME280;5284;50.446;7.904;2022-10-14T08:52:30;98255.63;;;13.65;100.00
10474;BME280;5284;50.446;7.904;2022-10-14T08:57:46;98248.09;;;13.68;100.00
10474;BME280;5284;50.446;7.904;2022-10-14T09:02:51;98243.63;;;13.76;100.00
10474;BME280;5284;50.446;7.904;2022-10-14T09:07:56;98234.31;;;13.88;100.00
10474;BME280;5284;50.446;7.904;2022-10-14T09:13:09;98225.88;;;13.75;100.00
10474;BME280;5284;50.446;7.904;2022-10-14T09:18:20;98223.59;;;13.88;100.00
10474;BME280;5284;50.446;7.904;2022-10-14T09:23:26;98220.59;;;13.91;100.00
10474;BME280;5284;50.446;7.904;2022-10-14T09:28:34;98212.41;;;13.93;100.00
10474;BME280;5284;50.446;7.904;2022-10-14T09:33:39;98207.25;;;13.99;100.00
10474;BME280;5284;50.446;7.904;2022-10-14T09:38:44;98207.75;;;14.28;100.00
10474;BME280;5284;50.446;7.904;2022-10-14T09:44:15;98205.00;;;14.54;100.00
10474;BME280;5284;50.446;7.904;2022-10-14T09:49:32;98195.69;;;14.82;100.00
10474;BME280;5284;50.446;7.904;2022-10-14T09:54:40;98192.00;;;14.91;100.00
10474;BME280;5284;50.446;7.904;2022-10-14T09:59:50;98188.44;;;14.74;100.00
10474;BME280;5284;50.446;7.904;2022-10-14T10:04:55;98182.56;;;14.79;100.00
10474;BME280;5284;50.446;7.904;2022-10-14T10:10:00;98186.09;;;14.71;100.00
10474;BME280;5284;50.446;7.904;2022-10-14T10:15:17;98185.25;;;14.79;100.00
10474;BME280;5284;50.446;7.904;2022-10-14T10:20:22;98168.31;;;14.86;100.00
10474;BME280;5284;50.446;7.904;2022-10-14T10:25:33;98170.81;;;14.80;100.00
10474;BME280;5284;50.446;7.904;2022-10-14T10:30:42;98163.28;;;14.75;100.00
10474;BME280;5284;50.446;7.904;2022-10-14T10:36:20;98155.22;;;14.67;100.00
10474;BME280;5284;50.446;7.904;2022-10-14T10:41:44;98138.59;;;14.48;100.00
10474;BME280;5284;50.446;7.904;2022-10-14T10:47:03;98145.97;;;14.62;100.00
10474;BME280;5284;50.446;7.904;2022-10-14T10:52:14;98130.03;;;14.52;100.00
10474;BME280;5284;50.446;7.904;2022-10-14T10:57:35;98139.75;;;14.53;100.00
10474;BME280;5284;50.446;7.904;2022-10-14T11:02:52;98137.25;;;14.60;100.00
10474;BME280;5284;50.446;7.904;2022-10-14T11:07:59;98125.00;;;14.57;100.00
10474;BME280;5284;50.446;7.904;2022-10-14T11:13:28;98113.72;;;14.46;100.00
10474;BME280;5284;50.446;7.904;2022-10-14T11:18:42;98110.91;;;14.55;100.00
10474;BME280;5284;50.446;7.904;2022-10-14T11:23:55;98103.19;;;14.52;100.00
10474;BME280;5284;50.446;7.904;2022-10-14T11:29:17;98100.34;;;14.54;100.00
10474;BME280;5284;50.446;7.904;2022-10-14T11:34:42;98090.09;;;14.57;100.00
10474;BME280;5284;50.446;7.904;2022-10-14T11:39:48;98087.94;;;14.53;100.00
10474;BME280;5284;50.446;7.904;2022-10-14T11:44:56;98081.38;;;14.39;100.00
10474;BME280;5284;50.446;7.904;2022-10-14T11:50:14;98069.31;;;14.43;100.00
10474;BME280;5284;50.446;7.904;2022-10-14T11:55:20;98072.13;;;14.26;100.00
10474;BME280;5284;50.446;7.904;2022-10-14T12:05:55;98070.88;;;14.12;100.00
10474;BME280;5284;50.446;7.904;2022-10-14T12:11:10;98061.16;;;14.03;100.00
10474;BME280;5284;50.446;7.904;2022-10-14T12:16:17;98049.75;;;14.09;100.00
10474;BME280;5284;50.446;7.904;2022-10-14T12:21:28;98040.50;;;14.04;100.00
10474;BME280;5284;50.446;7.904;2022-10-14T12:26:50;98041.53;;;14.03;100.00
10474;BME280;5284;50.446;7.904;2022-10-14T12:32:07;98049.44;;;14.12;100.00
10474;BME280;5284;50.446;7.904;2022-10-14T12:48:14;98026.28;;;14.11;100.00
10474;BME280;5284;50.446;7.904;2022-10-14T12:53:22;98017.91;;;14.14;100.00
10474;BME280;5284;50.446;7.904;2022-10-14T12:58:30;98017.72;;;14.08;100.00
10474;BME280;5284;50.446;7.904;2022-10-14T13:03:39;98005.50;;;14.05;100.00
10474;BME280;5284;50.446;7.904;2022-10-14T13:20:48;97985.84;;;13.81;100.00
10474;BME280;5284;50.446;7.904;2022-10-14T13:25:52;97976.50;;;13.93;100.00
10474;BME280;5284;50.446;7.904;2022-10-14T13:31:01;97968.97;;;13.96;100.00
10474;BME280;5284;50.446;7.904;2022-10-14T13:36:12;97962.94;;;14.02;100.00
10474;BME280;5284;50.446;7.904;2022-10-14T13:41:19;97961.09;;;14.11;100.00
10474;BME280;5284;50.446;7.904;2022-10-14T13:46:34;97959.59;;;14.08;100.00
10474;BME280;5284;50.446;7.904;2022-10-14T13:51:47;97962.75;;;14.12;100.00
10474;BME280;5284;50.446;7.904;2022-10-14T13:57:00;97965.44;;;14.12;100.00
10474;BME280;5284;50.446;7.904;2022-10-14T14:02:24;97956.13;;;14.16;100.00
10474;BME280;5284;50.446;7.904;2022-10-14T14:07:33;97956.94;;;14.16;100.00
10474;BME280;5284;50.446;7.904;2022-10-14T14:13:02;97954.09;;;14.18;100.00
10474;BME280;5284;50.446;7.904;2022-10-14T14:18:28;97930.78;;;14.26;100.00
10474;BME280;5284;50.446;7.904;2022-10-14T14:23:57;97928.44;;;14.47;100.00
10474;BME280;5284;50.446;7.904;2022-10-14T14:29:03;97927.75;;;14.45;100.00
10474;BME280;5284;50.446;7.904;2022-10-14T14:34:06;97924.03;;;14.62;100.00
10474;BME280;5284;50.446;7.904;2022-10-14T14:39:19;97921.69;;;14.67;100.00
10474;BME280;5284;50.446;7.904;2022-10-14T14:44:25;97917.69;;;14.63;100.00
10474;BME280;5284;50.446;7.904;2022-10-14T14:49:30;97925.06;;;14.53;100.00
10474;BME280;5284;50.446;7.904;2022-10-14T14:54:43;97932.97;;;14.47;100.00
10474;BME280;5284;50.446;7.904;2022-10-14T14:59:51;97922.75;;;14.42;100.00
10474;BME280;5284;50.446;7.904;2022-10-14T15:04:59;97925.75;;;14.39;100.00
10474;BME280;5284;50.446;7.904;2022-10-14T15:10:06;97920.22;;;14.41;100.00
10474;BME280;5284;50.446;7.904;2022-10-14T15:15:24;97908.34;;;14.35;100.00
10474;BME280;5284;50.446;7.904;2022-10-14T15:20:29;97905.78;;;14.42;100.00
10474;BME280;5284;50.446;7.904;2022-10-14T15:25:35;97907.66;;;14.41;100.00
10474;BME280;5284;50.446;7.904;2022-10-14T15:30:48;97903.78;;;14.36;100.00
10474;BME280;5284;50.446;7.904;2022-10-14T15:35:55;97905.31;;;14.38;100.00
10474;BME280;5284;50.446;7.904;2022-10-14T15:41:02;97898.09;;;14.39;100.00
10474;BME280;5284;50.446;7.904;2022-10-14T15:46:11;97880.50;;;14.36;100.00
10474;BME280;5284;50.446;7.904;2022-10-14T15:51:40;97874.81;;;14.31;100.00
10474;BME280;5284;50.446;7.904;2022-10-14T15:56:45;97874.81;;;14.31;100.00
10474;BME280;5284;50.446;7.904;2022-10-14T16:01:49;97867.06;;;14.28;100.00
10474;BME280;5284;50.446;7.904;2022-10-14T16:06:54;97869.09;;;14.26;100.00
10474;BME280;5284;50.446;7.904;2022-10-14T16:11:59;97862.06;;;14.17;100.00
10474;BME280;5284;50.446;7.904;2022-10-14T16:17:07;97854.31;;;14.14;100.00
10474;BME280;5284;50.446;7.904;2022-10-14T16:22:12;97862.06;;;14.09;100.00
10474;BME280;5284;50.446;7.904;2022-10-14T16:27:17;97849.31;;;14.03;100.00
10474;BME280;5284;50.446;7.904;2022-10-14T16:32:20;97851.50;;;14.00;100.00
10474;BME280;5284;50.446;7.904;2022-10-14T16:37:23;97852.84;;;13.96;100.00
10474;BME280;5284;50.446;7.904;2022-10-14T16:42:27;97840.44;;;13.95;100.00
10474;BME280;5284;50.446;7.904;2022-10-14T16:47:30;97834.22;;;13.94;100.00
10474;BME280;5284;50.446;7.904;2022-10-14T16:52:33;97844.13;;;13.94;100.00
10474;BME280;5284;50.446;7.904;2022-10-14T16:57:51;97861.22;;;13.93;100.00
10474;BME280;5284;50.446;7.904;2022-10-14T17:02:54;97854.00;;;13.93;100.00
10474;BME280;5284;50.446;7.904;2022-10-14T17:07:57;97847.97;;;13.91;100.00
10474;BME280;5284;50.446;7.904;2022-10-14T17:13:01;97855.53;;;13.88;100.00
10474;BME280;5284;50.446;7.904;2022-10-14T17:18:09;97852.84;;;13.88;100.00
10474;BME280;5284;50.446;7.904;2022-10-14T17:23:13;97851.31;;;13.85;100.00
10474;BME280;5284;50.446;7.904;2022-10-14T17:28:17;97835.75;;;13.81;100.00
10474;BME280;5284;50.446;7.904;2022-10-14T17:33:21;97853.66;;;13.80;100.00
10474;BME280;5284;50.446;7.904;2022-10-14T17:38:24;97848.50;;;13.79;100.00
10474;BME280;5284;50.446;7.904;2022-10-14T17:43:29;97843.28;;;13.77;100.00
10474;BME280;5284;50.446;7.904;2022-10-14T17:48:33;97852.19;;;13.78;100.00
10474;BME280;5284;50.446;7.904;2022-10-14T17:53:36;97849.00;;;13.74;100.00
10474;BME280;5284;50.446;7.904;2022-10-14T17:59:06;97850.00;;;13.73;100.00
10474;BME280;5284;50.446;7.904;2022-10-14T18:04:10;97857.19;;;13.73;100.00
10474;BME280;5284;50.446;7.904;2022-10-14T18:09:13;97858.03;;;13.73;100.00
10474;BME280;5284;50.446;7.904;2022-10-14T18:14:19;97840.09;;;13.74;100.00
10474;BME280;5284;50.446;7.904;2022-10-14T18:19:22;97829.56;;;13.73;100.00
10474;BME280;5284;50.446;7.904;2022-10-14T18:24:24;97827.03;;;13.71;100.00
10474;BME280;5284;50.446;7.904;2022-10-14T18:29:29;97824.53;;;13.70;100.00
10474;BME280;5284;50.446;7.904;2022-10-14T18:34:32;97818.16;;;13.71;100.00
10474;BME280;5284;50.446;7.904;2022-10-14T18:39:34;97822.88;;;13.69;100.00
10474;BME280;5284;50.446;7.904;2022-10-14T18:44:38;97826.34;;;13.69;100.00
10474;BME280;5284;50.446;7.904;2022-10-14T18:49:42;97827.38;;;13.68;100.00
10474;BME280;5284;50.446;7.904;2022-10-14T18:54:45;97830.03;;;13.68;100.00
10474;BME280;5284;50.446;7.904;2022-10-14T18:59:50;97824.53;;;13.70;100.00
10474;BME280;5284;50.446;7.904;2022-10-14T19:04:53;97817.31;;;13.70;100.00
10474;BME280;5284;50.446;7.904;2022-10-14T19:09:56;97812.81;;;13.71;100.00
10474;BME280;5284;50.446;7.904;2022-10-14T19:15:00;97816.31;;;13.71;100.00
10474;BME280;5284;50.446;7.904;2022-10-14T19:20:04;97806.78;;;13.69;100.00
10474;BME280;5284;50.446;7.904;2022-10-14T19:25:08;97802.25;;;13.69;100.00
10474;BME280;5284;50.446;7.904;2022-10-14T19:30:13;97800.56;;;13.68;100.00
10474;BME280;5284;50.446;7.904;2022-10-14T19:35:16;97797.22;;;13.66;100.00
10474;BME280;5284;50.446;7.904;2022-10-14T19:40:24;97788.38;;;13.66;100.00
10474;BME280;5284;50.446;7.904;2022-10-14T19:45:28;97787.69;;;13.64;100.00
10474;BME280;5284;50.446;7.904;2022-10-14T19:50:58;97784.16;;;13.63;100.00
10474;BME280;5284;50.446;7.904;2022-10-14T19:56:09;97787.69;;;13.64;100.00
10474;BME280;5284;50.446;7.904;2022-10-14T20:01:16;97784.34;;;13.62;100.00
10474;BME280;5284;50.446;7.904;2022-10-14T20:06:20;97779.97;;;13.61;100.00
10474;BME280;5284;50.446;7.904;2022-10-14T20:11:23;97785.31;;;13.61;100.00
10474;BME280;5284;50.446;7.904;2022-10-14T20:16:27;97771.09;;;13.60;100.00
10474;BME280;5284;50.446;7.904;2022-10-14T20:21:30;97767.56;;;13.60;100.00
10474;BME280;5284;50.446;7.904;2022-10-14T20:26:33;97757.88;;;13.59;100.00
10474;BME280;5284;50.446;7.904;2022-10-14T20:31:39;97752.50;;;13.59;100.00
10474;BME280;5284;50.446;7.904;2022-10-14T20:36:42;97755.38;;;13.57;100.00
10474;BME280;5284;50.446;7.904;2022-10-14T20:41:45;97752.69;;;13.57;100.00
10474;BME280;5284;50.446;7.904;2022-10-14T20:46:49;97752.84;;;13.56;100.00
10474;BME280;5284;50.446;7.904;2022-10-14T20:51:52;97746.66;;;13.55;100.00
10474;BME280;5284;50.446;7.904;2022-10-14T20:56:54;97726.72;;;13.50;100.00
10474;BME280;5284;50.446;7.904;2022-10-14T21:01:59;97728.75;;;13.48;100.00
10474;BME280;5284;50.446;7.904;2022-10-14T21:07:03;97724.41;;;13.47;100.00
10474;BME280;5284;50.446;7.904;2022-10-14T21:12:06;97730.75;;;13.46;100.00
10474;BME280;5284;50.446;7.904;2022-10-14T21:17:10;97717.69;;;13.43;100.00
10474;BME280;5284;50.446;7.904;2022-10-14T21:22:13;97707.47;;;13.38;100.00
10474;BME280;5284;50.446;7.904;2022-10-14T21:27:16;97701.66;;;13.35;100.00
10474;BME280;5284;50.446;7.904;2022-10-14T21:32:20;97696.63;;;13.32;100.00
10474;BME280;5284;50.446;7.904;2022-10-14T21:37:24;97681.56;;;13.31;100.00
10474;BME280;5284;50.446;7.904;2022-10-14T21:42:26;97688.75;;;13.30;100.00
10474;BME280;5284;50.446;7.904;2022-10-14T21:47:31;97681.91;;;13.28;100.00
10474;BME280;5284;50.446;7.904;2022-10-14T21:52:33;97678.38;;;13.27;100.00
10474;BME280;5284;50.446;7.904;2022-10-14T21:57:36;97655.44;;;13.25;100.00
10474;BME280;5284;50.446;7.904;2022-10-14T22:02:40;97668.66;;;13.26;100.00
10474;BME280;5284;50.446;7.904;2022-10-14T22:07:43;97677.53;;;13.27;100.00
10474;BME280;5284;50.446;7.904;2022-10-14T22:12:46;97673.88;;;13.28;100.00
10474;BME280;5284;50.446;7.904;2022-10-14T22:17:51;97675.53;;;13.29;100.00
10474;BME280;5284;50.446;7.904;2022-10-14T22:22:54;97673.53;;;13.31;100.00
10474;BME280;5284;50.446;7.904;2022-10-14T22:27:58;97674.34;;;13.31;100.00
10474;BME280;5284;50.446;7.904;2022-10-14T22:33:03;97669.84;;;13.32;100.00
10474;BME280;5284;50.446;7.904;2022-10-14T22:38:10;97654.44;;;13.34;100.00
10474;BME280;5284;50.446;7.904;2022-10-14T22:43:13;97658.94;;;13.33;100.00
10474;BME280;5284;50.446;7.904;2022-10-14T22:48:17;97663.28;;;13.34;100.00
10474;BME280;5284;50.446;7.904;2022-10-14T22:53:20;97651.56;;;13.35;100.00
10474;BME280;5284;50.446;7.904;2022-10-14T22:58:24;97642.72;;;13.35;100.00
10474;BME280;5284;50.446;7.904;2022-10-14T23:03:54;97638.19;;;13.35;100.00
10474;BME280;5284;50.446;7.904;2022-10-14T23:08:58;97629.34;;;13.35;100.00
10474;BME280;5284;50.446;7.904;2022-10-14T23:14:02;97629.50;;;13.33;100.00
10474;BME280;5284;50.446;7.904;2022-10-14T23:19:09;97636.69;;;13.33;100.00
10474;BME280;5284;50.446;7.904;2022-10-14T23:24:12;97637.53;;;13.33;100.00
10474;BME280;5284;50.446;7.904;2022-10-14T23:29:15;97640.38;;;13.32;100.00
10474;BME280;5284;50.446;7.904;2022-10-14T23:34:19;97631.50;;;13.31;100.00
10474;BME280;5284;50.446;7.904;2022-10-14T23:39:22;97637.88;;;13.30;100.00
10474;BME280;5284;50.446;7.904;2022-10-14T23:44:25;97623.47;;;13.31;100.00
10474;BME280;5284;50.446;7.904;2022-10-14T23:49:29;97636.84;;;13.31;100.00
10474;BME280;5284;50.446;7.904;2022-10-14T23:54:32;97635.19;;;13.30;100.00
10474;BME280;5284;50.446;7.904;2022-10-14T23:59:35;97636.19;;;13.29;100.00
